Arispe, Iowa
Current Conditions -  °F | °C
As of 10:15 AM on Friday 19 Dec 2014 (Local Time) from KCSQ Reporting Station
Haze Haze  
Wind Chill: 24°   Ceiling: 500
Heat Index: 30°   Visibility: 4mi
Dew Point: 30°   Wind: 6mph
Humidity: 100%   Direction: 150°SSE
Pressure: 30.26"   Gusts: NA
Location:  40.95°N, 94.22°W
Report Text: KCSQ 191615Z AUTO 15005KT 4SM BR OVC005 M01/M01 A3026 RMK AO2
Loading
Personal Weather Stations






























Interactive Weather Map New forecast layout! Learn more

10-Day Weather Forecast

Advertisements
Track Severe Weather on mobile